sensor_id;sensor_type;location;lat;lon;timestamp;temperature;humidity
52889;DHT22;41413;52.770;6.892;2023-11-22T00:02:20;2.70;99.90
52889;DHT22;41413;52.770;6.892;2023-11-22T00:04:47;2.70;99.90
52889;DHT22;41413;52.770;6.892;2023-11-22T00:07:14;2.70;99.90
52889;DHT22;41413;52.770;6.892;2023-11-22T00:09:40;2.70;99.90
52889;DHT22;41413;52.770;6.892;2023-11-22T00:12:09;2.70;99.90
52889;DHT22;41413;52.770;6.892;2023-11-22T00:14:36;2.60;99.90
52889;DHT22;41413;52.770;6.892;2023-11-22T00:17:03;2.60;99.90
52889;DHT22;41413;52.770;6.892;2023-11-22T00:19:30;2.60;99.90
52889;DHT22;41413;52.770;6.892;2023-11-22T00:21:57;2.60;99.90
52889;DHT22;41413;52.770;6.892;2023-11-22T00:24:24;2.70;99.90
52889;DHT22;41413;52.770;6.892;2023-11-22T00:26:50;2.70;99.90
52889;DHT22;41413;52.770;6.892;2023-11-22T00:29:17;2.70;99.90
52889;DHT22;41413;52.770;6.892;2023-11-22T00:31:44;2.70;99.90
52889;DHT22;41413;52.770;6.892;2023-11-22T00:34:11;2.60;99.90
52889;DHT22;41413;52.770;6.892;2023-11-22T00:36:38;2.60;99.90
52889;DHT22;41413;52.770;6.892;2023-11-22T00:39:05;2.60;99.90
52889;DHT22;41413;52.770;6.892;2023-11-22T00:41:32;2.60;99.90
52889;DHT22;41413;52.770;6.892;2023-11-22T00:43:59;2.50;99.90
52889;DHT22;41413;52.770;6.892;2023-11-22T00:46:26;2.50;99.90
52889;DHT22;41413;52.770;6.892;2023-11-22T00:48:52;2.50;99.90
52889;DHT22;41413;52.770;6.892;2023-11-22T00:51:19;2.50;99.90
52889;DHT22;41413;52.770;6.892;2023-11-22T00:53:46;2.40;99.90
52889;DHT22;41413;52.770;6.892;2023-11-22T00:56:13;2.40;99.90
52889;DHT22;41413;52.770;6.892;2023-11-22T00:58:40;2.40;99.90
52889;DHT22;41413;52.770;6.892;2023-11-22T01:01:07;2.30;99.90
52889;DHT22;41413;52.770;6.892;2023-11-22T01:03:34;2.40;99.90
52889;DHT22;41413;52.770;6.892;2023-11-22T01:06:02;2.30;99.90
52889;DHT22;41413;52.770;6.892;2023-11-22T01:08:29;2.30;99.90
52889;DHT22;41413;52.770;6.892;2023-11-22T01:10:57;2.30;99.90
52889;DHT22;41413;52.770;6.892;2023-11-22T01:13:24;2.20;99.90
52889;DHT22;41413;52.770;6.892;2023-11-22T01:15:51;2.20;99.90
52889;DHT22;41413;52.770;6.892;2023-11-22T01:18:18;2.30;99.90
52889;DHT22;41413;52.770;6.892;2023-11-22T01:20:45;2.30;99.90
52889;DHT22;41413;52.770;6.892;2023-11-22T01:23:12;2.20;99.90
52889;DHT22;41413;52.770;6.892;2023-11-22T01:25:39;2.20;99.90
52889;DHT22;41413;52.770;6.892;2023-11-22T01:28:06;2.20;99.90
52889;DHT22;41413;52.770;6.892;2023-11-22T01:30:37;2.10;99.90
52889;DHT22;41413;52.770;6.892;2023-11-22T01:33:05;2.10;99.90
52889;DHT22;41413;52.770;6.892;2023-11-22T01:35:32;2.10;99.90
52889;DHT22;41413;52.770;6.892;2023-11-22T01:38:00;2.00;99.90
52889;DHT22;41413;52.770;6.892;2023-11-22T01:40:28;2.10;99.90
52889;DHT22;41413;52.770;6.892;2023-11-22T01:42:55;2.00;99.90
52889;DHT22;41413;52.770;6.892;2023-11-22T01:45:22;2.00;99.90
52889;DHT22;41413;52.770;6.892;2023-11-22T01:47:49;2.10;99.90
52889;DHT22;41413;52.770;6.892;2023-11-22T01:50:16;2.00;99.90
52889;DHT22;41413;52.770;6.892;2023-11-22T01:52:44;2.10;99.90
52889;DHT22;41413;52.770;6.892;2023-11-22T01:55:12;2.00;99.90
52889;DHT22;41413;52.770;6.892;2023-11-22T01:57:40;2.00;99.90
52889;DHT22;41413;52.770;6.892;2023-11-22T02:00:07;2.00;99.90
52889;DHT22;41413;52.770;6.892;2023-11-22T02:02:34;2.10;99.90
52889;DHT22;41413;52.770;6.892;2023-11-22T02:05:01;2.10;99.90
52889;DHT22;41413;52.770;6.892;2023-11-22T02:07:28;2.00;99.90
52889;DHT22;41413;52.770;6.892;2023-11-22T02:09:55;2.10;99.90
52889;DHT22;41413;52.770;6.892;2023-11-22T02:12:22;2.00;99.90
52889;DHT22;41413;52.770;6.892;2023-11-22T02:14:49;2.00;99.90
52889;DHT22;41413;52.770;6.892;2023-11-22T02:17:16;2.00;99.90
52889;DHT22;41413;52.770;6.892;2023-11-22T02:19:45;2.00;99.90
52889;DHT22;41413;52.770;6.892;2023-11-22T02:22:12;2.10;99.90
52889;DHT22;41413;52.770;6.892;2023-11-22T02:24:39;2.10;99.90
52889;DHT22;41413;52.770;6.892;2023-11-22T02:27:06;2.10;99.90
52889;DHT22;41413;52.770;6.892;2023-11-22T02:29:33;2.10;99.90
52889;DHT22;41413;52.770;6.892;2023-11-22T02:32:00;2.10;99.90
52889;DHT22;41413;52.770;6.892;2023-11-22T02:34:26;2.10;99.90
52889;DHT22;41413;52.770;6.892;2023-11-22T02:36:54;2.10;99.90
52889;DHT22;41413;52.770;6.892;2023-11-22T02:39:43;2.10;99.90
52889;DHT22;41413;52.770;6.892;2023-11-22T02:42:14;2.10;99.90
52889;DHT22;41413;52.770;6.892;2023-11-22T02:44:41;2.10;99.90
52889;DHT22;41413;52.770;6.892;2023-11-22T02:47:08;2.00;99.90
52889;DHT22;41413;52.770;6.892;2023-11-22T02:49:36;1.90;99.90
52889;DHT22;41413;52.770;6.892;2023-11-22T02:52:04;1.90;99.90
52889;DHT22;41413;52.770;6.892;2023-11-22T02:54:30;2.00;99.90
52889;DHT22;41413;52.770;6.892;2023-11-22T02:56:57;1.80;99.90
52889;DHT22;41413;52.770;6.892;2023-11-22T02:59:24;1.80;99.90
52889;DHT22;41413;52.770;6.892;2023-11-22T03:01:51;1.80;99.90
52889;DHT22;41413;52.770;6.892;2023-11-22T03:04:17;1.70;99.90
52889;DHT22;41413;52.770;6.892;2023-11-22T03:06:44;1.70;99.90
52889;DHT22;41413;52.770;6.892;2023-11-22T03:09:11;1.60;99.90
52889;DHT22;41413;52.770;6.892;2023-11-22T03:11:40;1.50;99.90
52889;DHT22;41413;52.770;6.892;2023-11-22T03:14:07;1.50;99.90
52889;DHT22;41413;52.770;6.892;2023-11-22T03:16:39;1.50;99.90
52889;DHT22;41413;52.770;6.892;2023-11-22T03:19:06;1.50;99.90
52889;DHT22;41413;52.770;6.892;2023-11-22T03:21:33;1.50;99.90
52889;DHT22;41413;52.770;6.892;2023-11-22T03:24:02;1.50;99.90
52889;DHT22;41413;52.770;6.892;2023-11-22T03:26:30;1.50;99.90
52889;DHT22;41413;52.770;6.892;2023-11-22T03:28:57;1.50;99.90
52889;DHT22;41413;52.770;6.892;2023-11-22T03:31:24;1.50;99.90
52889;DHT22;41413;52.770;6.892;2023-11-22T03:33:50;1.50;99.90
52889;DHT22;41413;52.770;6.892;2023-11-22T03:36:17;1.60;99.90
52889;DHT22;41413;52.770;6.892;2023-11-22T03:38:45;1.50;99.90
52889;DHT22;41413;52.770;6.892;2023-11-22T03:41:11;1.50;99.90
52889;DHT22;41413;52.770;6.892;2023-11-22T03:43:38;1.60;99.90
52889;DHT22;41413;52.770;6.892;2023-11-22T03:46:05;1.50;99.90
52889;DHT22;41413;52.770;6.892;2023-11-22T03:48:32;1.50;99.90
52889;DHT22;41413;52.770;6.892;2023-11-22T03:50:58;1.50;99.90
52889;DHT22;41413;52.770;6.892;2023-11-22T03:53:25;1.50;99.90
52889;DHT22;41413;52.770;6.892;2023-11-22T03:55:52;1.50;99.90
52889;DHT22;41413;52.770;6.892;2023-11-22T03:58:19;1.50;99.90
52889;DHT22;41413;52.770;6.892;2023-11-22T04:00:46;1.50;99.90
52889;DHT22;41413;52.770;6.892;2023-11-22T04:03:13;1.60;99.90
52889;DHT22;41413;52.770;6.892;2023-11-22T04:05:40;1.60;99.90
52889;DHT22;41413;52.770;6.892;2023-11-22T04:08:07;1.70;99.90
52889;DHT22;41413;52.770;6.892;2023-11-22T04:10:36;1.70;99.90
52889;DHT22;41413;52.770;6.892;2023-11-22T04:13:03;1.70;99.90
52889;DHT22;41413;52.770;6.892;2023-11-22T04:15:29;1.80;99.90
52889;DHT22;41413;52.770;6.892;2023-11-22T04:17:56;1.80;99.90
52889;DHT22;41413;52.770;6.892;2023-11-22T04:20:24;1.80;99.90
52889;DHT22;41413;52.770;6.892;2023-11-22T04:22:50;1.80;99.90
52889;DHT22;41413;52.770;6.892;2023-11-22T04:25:17;1.80;99.90
52889;DHT22;41413;52.770;6.892;2023-11-22T04:27:44;1.70;99.90
52889;DHT22;41413;52.770;6.892;2023-11-22T04:30:11;1.60;99.90
52889;DHT22;41413;52.770;6.892;2023-11-22T04:32:44;1.60;99.90
52889;DHT22;41413;52.770;6.892;2023-11-22T04:35:11;1.50;99.90
52889;DHT22;41413;52.770;6.892;2023-11-22T04:37:38;1.40;99.90
52889;DHT22;41413;52.770;6.892;2023-11-22T04:40:05;1.50;99.90
52889;DHT22;41413;52.770;6.892;2023-11-22T04:42:37;1.40;99.90
52889;DHT22;41413;52.770;6.892;2023-11-22T04:45:04;1.30;99.90
52889;DHT22;41413;52.770;6.892;2023-11-22T04:47:32;1.30;99.90
52889;DHT22;41413;52.770;6.892;2023-11-22T04:50:00;1.40;99.90
52889;DHT22;41413;52.770;6.892;2023-11-22T04:52:26;1.30;99.90
52889;DHT22;41413;52.770;6.892;2023-11-22T04:54:56;1.40;99.90
52889;DHT22;41413;52.770;6.892;2023-11-22T04:57:23;1.40;99.90
52889;DHT22;41413;52.770;6.892;2023-11-22T04:59:49;1.50;99.90
52889;DHT22;41413;52.770;6.892;2023-11-22T05:02:16;1.50;99.90
52889;DHT22;41413;52.770;6.892;2023-11-22T05:04:43;1.60;99.90
52889;DHT22;41413;52.770;6.892;2023-11-22T05:07:14;1.60;99.90
52889;DHT22;41413;52.770;6.892;2023-11-22T05:09:42;1.60;99.90
52889;DHT22;41413;52.770;6.892;2023-11-22T05:12:11;1.60;99.90
52889;DHT22;41413;52.770;6.892;2023-11-22T05:14:38;1.50;99.90
52889;DHT22;41413;52.770;6.892;2023-11-22T05:17:05;1.60;99.90
52889;DHT22;41413;52.770;6.892;2023-11-22T05:19:32;1.60;99.90
52889;DHT22;41413;52.770;6.892;2023-11-22T05:21:59;1.60;99.90
52889;DHT22;41413;52.770;6.892;2023-11-22T05:24:26;1.60;99.90
52889;DHT22;41413;52.770;6.892;2023-11-22T05:26:52;1.60;99.90
52889;DHT22;41413;52.770;6.892;2023-11-22T05:29:19;1.60;99.90
52889;DHT22;41413;52.770;6.892;2023-11-22T05:31:46;1.60;99.90
52889;DHT22;41413;52.770;6.892;2023-11-22T05:34:13;1.60;99.90
52889;DHT22;41413;52.770;6.892;2023-11-22T05:36:40;1.60;99.90
52889;DHT22;41413;52.770;6.892;2023-11-22T05:39:07;1.60;99.90
52889;DHT22;41413;52.770;6.892;2023-11-22T05:41:33;1.60;99.90
52889;DHT22;41413;52.770;6.892;2023-11-22T05:44:00;1.50;99.90
52889;DHT22;41413;52.770;6.892;2023-11-22T05:46:27;1.60;99.90
52889;DHT22;41413;52.770;6.892;2023-11-22T05:48:54;1.60;99.90
52889;DHT22;41413;52.770;6.892;2023-11-22T05:51:21;1.50;99.90
52889;DHT22;41413;52.770;6.892;2023-11-22T05:53:48;1.50;99.90
52889;DHT22;41413;52.770;6.892;2023-11-22T05:56:15;1.50;99.90
52889;DHT22;41413;52.770;6.892;2023-11-22T05:58:43;1.50;99.90
52889;DHT22;41413;52.770;6.892;2023-11-22T06:01:10;1.50;99.90
52889;DHT22;41413;52.770;6.892;2023-11-22T06:03:40;1.40;99.90
52889;DHT22;41413;52.770;6.892;2023-11-22T06:06:07;1.40;99.90
52889;DHT22;41413;52.770;6.892;2023-11-22T06:08:34;1.50;99.90
52889;DHT22;41413;52.770;6.892;2023-11-22T06:11:01;1.50;99.90
52889;DHT22;41413;52.770;6.892;2023-11-22T06:13:28;1.40;99.90
52889;DHT22;41413;52.770;6.892;2023-11-22T06:15:54;1.40;99.90
52889;DHT22;41413;52.770;6.892;2023-11-22T06:18:21;1.50;99.90
52889;DHT22;41413;52.770;6.892;2023-11-22T06:20:48;1.40;99.90
52889;DHT22;41413;52.770;6.892;2023-11-22T06:23:15;1.40;99.90
52889;DHT22;41413;52.770;6.892;2023-11-22T06:25:42;1.40;99.90
52889;DHT22;41413;52.770;6.892;2023-11-22T06:28:09;1.40;99.90
52889;DHT22;41413;52.770;6.892;2023-11-22T06:30:36;1.40;99.90
52889;DHT22;41413;52.770;6.892;2023-11-22T06:33:03;1.50;99.90
52889;DHT22;41413;52.770;6.892;2023-11-22T06:35:30;1.40;99.90
52889;DHT22;41413;52.770;6.892;2023-11-22T06:37:57;1.40;99.90
52889;DHT22;41413;52.770;6.892;2023-11-22T06:40:23;1.50;99.90
52889;DHT22;41413;52.770;6.892;2023-11-22T06:42:50;1.50;99.90
52889;DHT22;41413;52.770;6.892;2023-11-22T06:45:18;1.50;99.90
52889;DHT22;41413;52.770;6.892;2023-11-22T06:47:45;1.40;99.90
52889;DHT22;41413;52.770;6.892;2023-11-22T06:50:12;1.40;99.90
52889;DHT22;41413;52.770;6.892;2023-11-22T06:52:39;1.30;99.90
52889;DHT22;41413;52.770;6.892;2023-11-22T06:55:08;1.30;99.90
52889;DHT22;41413;52.770;6.892;2023-11-22T06:57:38;1.30;99.90
52889;DHT22;41413;52.770;6.892;2023-11-22T07:00:05;1.30;99.90
52889;DHT22;41413;52.770;6.892;2023-11-22T07:02:32;1.30;99.90
52889;DHT22;41413;52.770;6.892;2023-11-22T07:04:59;1.40;99.90
52889;DHT22;41413;52.770;6.892;2023-11-22T07:07:26;1.40;99.90
52889;DHT22;41413;52.770;6.892;2023-11-22T07:09:56;1.40;99.90
52889;DHT22;41413;52.770;6.892;2023-11-22T07:12:26;1.40;99.90
52889;DHT22;41413;52.770;6.892;2023-11-22T07:14:53;1.50;99.90
52889;DHT22;41413;52.770;6.892;2023-11-22T07:17:20;1.30;99.90
52889;DHT22;41413;52.770;6.892;2023-11-22T07:19:48;1.50;99.90
52889;DHT22;41413;52.770;6.892;2023-11-22T07:22:15;1.40;99.90
52889;DHT22;41413;52.770;6.892;2023-11-22T07:24:44;1.40;99.90
52889;DHT22;41413;52.770;6.892;2023-11-22T07:27:14;1.40;99.90
52889;DHT22;41413;52.770;6.892;2023-11-22T07:29:41;1.40;99.90
52889;DHT22;41413;52.770;6.892;2023-11-22T07:32:09;1.40;99.90
52889;DHT22;41413;52.770;6.892;2023-11-22T07:34:36;1.40;99.90
52889;DHT22;41413;52.770;6.892;2023-11-22T07:37:04;1.40;99.90
52889;DHT22;41413;52.770;6.892;2023-11-22T07:39:30;1.40;99.90
52889;DHT22;41413;52.770;6.892;2023-11-22T07:41:57;1.50;99.90
52889;DHT22;41413;52.770;6.892;2023-11-22T07:44:24;1.50;99.90
52889;DHT22;41413;52.770;6.892;2023-11-22T07:46:51;1.60;99.90
52889;DHT22;41413;52.770;6.892;2023-11-22T07:49:19;1.70;99.90
52889;DHT22;41413;52.770;6.892;2023-11-22T07:51:47;1.80;99.90
52889;DHT22;41413;52.770;6.892;2023-11-22T07:54:21;1.90;99.90
52889;DHT22;41413;52.770;6.892;2023-11-22T07:56:49;1.90;99.90
52889;DHT22;41413;52.770;6.892;2023-11-22T07:59:16;1.90;99.90
52889;DHT22;41413;52.770;6.892;2023-11-22T08:01:43;1.90;99.90
52889;DHT22;41413;52.770;6.892;2023-11-22T08:04:10;1.90;99.90
52889;DHT22;41413;52.770;6.892;2023-11-22T08:06:37;1.90;99.90
52889;DHT22;41413;52.770;6.892;2023-11-22T08:09:05;2.00;99.90
52889;DHT22;41413;52.770;6.892;2023-11-22T08:11:31;2.00;99.90
52889;DHT22;41413;52.770;6.892;2023-11-22T08:13:58;2.10;99.90
52889;DHT22;41413;52.770;6.892;2023-11-22T08:16:26;2.20;99.90
52889;DHT22;41413;52.770;6.892;2023-11-22T08:18:53;2.20;99.90
52889;DHT22;41413;52.770;6.892;2023-11-22T08:21:20;2.20;99.90
52889;DHT22;41413;52.770;6.892;2023-11-22T08:23:47;2.20;99.90
52889;DHT22;41413;52.770;6.892;2023-11-22T08:26:14;2.30;99.90
52889;DHT22;41413;52.770;6.892;2023-11-22T08:28:41;2.30;99.90
52889;DHT22;41413;52.770;6.892;2023-11-22T08:31:08;2.20;99.90
52889;DHT22;41413;52.770;6.892;2023-11-22T08:33:37;2.30;99.90
52889;DHT22;41413;52.770;6.892;2023-11-22T08:36:06;2.30;99.90
52889;DHT22;41413;52.770;6.892;2023-11-22T08:38:33;2.20;99.90
52889;DHT22;41413;52.770;6.892;2023-11-22T08:41:07;2.20;99.90
52889;DHT22;41413;52.770;6.892;2023-11-22T08:43:34;2.20;99.90
52889;DHT22;41413;52.770;6.892;2023-11-22T08:46:01;2.20;99.90
52889;DHT22;41413;52.770;6.892;2023-11-22T08:48:40;2.20;99.90
52889;DHT22;41413;52.770;6.892;2023-11-22T08:51:09;2.30;99.90
52889;DHT22;41413;52.770;6.892;2023-11-22T08:53:37;2.30;99.90
52889;DHT22;41413;52.770;6.892;2023-11-22T08:56:04;2.30;99.90
52889;DHT22;41413;52.770;6.892;2023-11-22T08:58:32;2.30;99.90
52889;DHT22;41413;52.770;6.892;2023-11-22T09:01:00;2.40;99.90
52889;DHT22;41413;52.770;6.892;2023-11-22T09:03:27;2.40;99.90
52889;DHT22;41413;52.770;6.892;2023-11-22T09:05:55;2.40;99.90
52889;DHT22;41413;52.770;6.892;2023-11-22T09:08:22;2.50;99.90
52889;DHT22;41413;52.770;6.892;2023-11-22T09:10:54;2.50;99.90
52889;DHT22;41413;52.770;6.892;2023-11-22T09:13:21;2.50;99.90
52889;DHT22;41413;52.770;6.892;2023-11-22T09:15:49;2.60;99.90
52889;DHT22;41413;52.770;6.892;2023-11-22T09:18:16;2.60;99.90
52889;DHT22;41413;52.770;6.892;2023-11-22T09:20:43;2.70;99.90
52889;DHT22;41413;52.770;6.892;2023-11-22T09:23:13;2.70;99.90
52889;DHT22;41413;52.770;6.892;2023-11-22T09:25:41;2.70;99.90
52889;DHT22;41413;52.770;6.892;2023-11-22T09:28:08;2.70;99.90
52889;DHT22;41413;52.770;6.892;2023-11-22T09:30:36;2.70;99.90
52889;DHT22;41413;52.770;6.892;2023-11-22T09:33:07;2.70;99.90
52889;DHT22;41413;52.770;6.892;2023-11-22T09:35:36;2.70;99.90
52889;DHT22;41413;52.770;6.892;2023-11-22T09:38:04;2.70;99.90
52889;DHT22;41413;52.770;6.892;2023-11-22T09:40:36;2.70;99.90
52889;DHT22;41413;52.770;6.892;2023-11-22T09:43:03;2.80;99.90
52889;DHT22;41413;52.770;6.892;2023-11-22T09:45:31;2.80;99.90
52889;DHT22;41413;52.770;6.892;2023-11-22T09:47:59;2.90;99.90
52889;DHT22;41413;52.770;6.892;2023-11-22T09:50:43;2.90;99.90
52889;DHT22;41413;52.770;6.892;2023-11-22T09:53:22;2.90;99.90
52889;DHT22;41413;52.770;6.892;2023-11-22T09:55:52;2.90;99.90
52889;DHT22;41413;52.770;6.892;2023-11-22T09:58:20;2.90;99.90
52889;DHT22;41413;52.770;6.892;2023-11-22T10:00:48;3.00;99.90
52889;DHT22;41413;52.770;6.892;2023-11-22T10:03:14;2.90;99.90
52889;DHT22;41413;52.770;6.892;2023-11-22T10:05:43;2.90;99.90
52889;DHT22;41413;52.770;6.892;2023-11-22T10:08:10;3.00;99.90
52889;DHT22;41413;52.770;6.892;2023-11-22T10:10:37;3.00;99.90
52889;DHT22;41413;52.770;6.892;2023-11-22T10:13:04;3.00;99.90
52889;DHT22;41413;52.770;6.892;2023-11-22T10:15:32;3.00;99.90
52889;DHT22;41413;52.770;6.892;2023-11-22T10:17:59;3.00;99.90
52889;DHT22;41413;52.770;6.892;2023-11-22T10:20:38;3.00;99.90
52889;DHT22;41413;52.770;6.892;2023-11-22T10:23:13;3.00;99.90
52889;DHT22;41413;52.770;6.892;2023-11-22T10:25:44;3.10;99.90
52889;DHT22;41413;52.770;6.892;2023-11-22T10:28:12;3.10;99.90
52889;DHT22;41413;52.770;6.892;2023-11-22T10:30:39;3.10;99.90
52889;DHT22;41413;52.770;6.892;2023-11-22T10:33:07;3.20;99.90
52889;DHT22;41413;52.770;6.892;2023-11-22T10:35:35;3.20;99.90
52889;DHT22;41413;52.770;6.892;2023-11-22T10:38:03;3.20;99.90
52889;DHT22;41413;52.770;6.892;2023-11-22T10:40:33;3.30;99.90
52889;DHT22;41413;52.770;6.892;2023-11-22T10:42:59;3.40;99.90
52889;DHT22;41413;52.770;6.892;2023-11-22T10:45:29;3.50;99.90
52889;DHT22;41413;52.770;6.892;2023-11-22T10:47:58;3.50;99.90
52889;DHT22;41413;52.770;6.892;2023-11-22T10:50:26;3.60;99.90
52889;DHT22;41413;52.770;6.892;2023-11-22T10:52:57;3.70;99.90
52889;DHT22;41413;52.770;6.892;2023-11-22T10:55:27;3.90;99.90
52889;DHT22;41413;52.770;6.892;2023-11-22T10:58:02;4.10;99.90
52889;DHT22;41413;52.770;6.892;2023-11-22T11:00:31;4.30;99.90
52889;DHT22;41413;52.770;6.892;2023-11-22T11:03:01;4.40;99.90
52889;DHT22;41413;52.770;6.892;2023-11-22T11:05:31;4.20;99.90
52889;DHT22;41413;52.770;6.892;2023-11-22T11:08:02;4.30;99.90
52889;DHT22;41413;52.770;6.892;2023-11-22T11:10:40;4.30;99.90
52889;DHT22;41413;52.770;6.892;2023-11-22T11:13:10;4.20;99.90
52889;DHT22;41413;52.770;6.892;2023-11-22T11:15:42;4.00;99.90
52889;DHT22;41413;52.770;6.892;2023-11-22T11:18:16;4.10;99.90
52889;DHT22;41413;52.770;6.892;2023-11-22T11:20:48;4.10;99.90
52889;DHT22;41413;52.770;6.892;2023-11-22T11:23:24;4.10;99.90
52889;DHT22;41413;52.770;6.892;2023-11-22T11:25:58;4.10;99.90
52889;DHT22;41413;52.770;6.892;2023-11-22T11:28:26;4.20;99.90
52889;DHT22;41413;52.770;6.892;2023-11-22T11:30:54;4.20;99.90
52889;DHT22;41413;52.770;6.892;2023-11-22T11:33:27;4.30;99.90
52889;DHT22;41413;52.770;6.892;2023-11-22T11:35:56;4.30;99.90
52889;DHT22;41413;52.770;6.892;2023-11-22T11:38:31;4.30;99.90
52889;DHT22;41413;52.770;6.892;2023-11-22T11:41:12;4.40;99.90
52889;DHT22;41413;52.770;6.892;2023-11-22T11:43:43;4.50;99.90
52889;DHT22;41413;52.770;6.892;2023-11-22T11:46:16;4.50;99.90
52889;DHT22;41413;52.770;6.892;2023-11-22T11:48:50;4.60;99.90
52889;DHT22;41413;52.770;6.892;2023-11-22T11:51:22;4.80;99.90
52889;DHT22;41413;52.770;6.892;2023-11-22T11:53:49;4.80;99.90
52889;DHT22;41413;52.770;6.892;2023-11-22T11:56:17;4.80;99.90
52889;DHT22;41413;52.770;6.892;2023-11-22T11:58:48;4.90;99.90
52889;DHT22;41413;52.770;6.892;2023-11-22T12:01:17;4.00;99.90
52889;DHT22;41413;52.770;6.892;2023-11-22T12:03:44;4.80;99.90
52889;DHT22;41413;52.770;6.892;2023-11-22T12:06:15;5.00;99.90
52889;DHT22;41413;52.770;6.892;2023-11-22T12:08:43;5.00;99.90
52889;DHT22;41413;52.770;6.892;2023-11-22T12:11:10;5.00;99.90
52889;DHT22;41413;52.770;6.892;2023-11-22T12:13:37;5.10;99.90
52889;DHT22;41413;52.770;6.892;2023-11-22T12:16:16;5.20;99.90
52889;DHT22;41413;52.770;6.892;2023-11-22T12:18:48;5.20;99.90
52889;DHT22;41413;52.770;6.892;2023-11-22T12:21:16;5.20;99.90
52889;DHT22;41413;52.770;6.892;2023-11-22T12:23:46;5.30;99.90
52889;DHT22;41413;52.770;6.892;2023-11-22T12:26:15;5.30;99.90
52889;DHT22;41413;52.770;6.892;2023-11-22T12:28:47;5.40;99.90
52889;DHT22;41413;52.770;6.892;2023-11-22T12:31:29;5.40;99.90
52889;DHT22;41413;52.770;6.892;2023-11-22T12:34:02;5.30;99.90
52889;DHT22;41413;52.770;6.892;2023-11-22T12:36:29;5.20;99.90
52889;DHT22;41413;52.770;6.892;2023-11-22T12:38:56;5.20;99.90
52889;DHT22;41413;52.770;6.892;2023-11-22T12:41:26;5.10;99.90
52889;DHT22;41413;52.770;6.892;2023-11-22T12:44:04;5.10;99.90
52889;DHT22;41413;52.770;6.892;2023-11-22T12:49:16;5.10;99.90
52889;DHT22;41413;52.770;6.892;2023-11-22T12:51:50;5.00;99.90
52889;DHT22;41413;52.770;6.892;2023-11-22T12:54:17;5.00;99.90
52889;DHT22;41413;52.770;6.892;2023-11-22T12:56:48;4.90;99.90
52889;DHT22;41413;52.770;6.892;2023-11-22T12:59:16;4.90;99.90
52889;DHT22;41413;52.770;6.892;2023-11-22T13:01:44;4.90;99.90
52889;DHT22;41413;52.770;6.892;2023-11-22T13:04:11;4.80;99.90
52889;DHT22;41413;52.770;6.892;2023-11-22T13:06:42;4.80;99.90
52889;DHT22;41413;52.770;6.892;2023-11-22T13:09:09;4.80;99.90
52889;DHT22;41413;52.770;6.892;2023-11-22T13:11:42;4.80;99.90
52889;DHT22;41413;52.770;6.892;2023-11-22T13:14:10;4.80;99.90
52889;DHT22;41413;52.770;6.892;2023-11-22T13:16:40;4.80;99.90
52889;DHT22;41413;52.770;6.892;2023-11-22T13:19:08;4.80;99.90
52889;DHT22;41413;52.770;6.892;2023-11-22T13:21:36;4.80;99.90
52889;DHT22;41413;52.770;6.892;2023-11-22T13:24:03;4.80;99.90
52889;DHT22;41413;52.770;6.892;2023-11-22T13:26:31;4.80;99.90
52889;DHT22;41413;52.770;6.892;2023-11-22T13:28:58;4.80;99.90
52889;DHT22;41413;52.770;6.892;2023-11-22T13:31:25;4.80;99.90
52889;DHT22;41413;52.770;6.892;2023-11-22T13:33:52;4.10;99.90
52889;DHT22;41413;52.770;6.892;2023-11-22T13:36:19;4.80;99.90
52889;DHT22;41413;52.770;6.892;2023-11-22T13:38:46;4.80;99.90
52889;DHT22;41413;52.770;6.892;2023-11-22T13:41:12;4.80;99.90
52889;DHT22;41413;52.770;6.892;2023-11-22T13:43:39;4.80;99.90
52889;DHT22;41413;52.770;6.892;2023-11-22T13:46:07;4.80;99.90
52889;DHT22;41413;52.770;6.892;2023-11-22T13:48:37;4.80;99.90
52889;DHT22;41413;52.770;6.892;2023-11-22T13:51:03;4.80;99.90
52889;DHT22;41413;52.770;6.892;2023-11-22T13:53:34;4.80;99.90
52889;DHT22;41413;52.770;6.892;2023-11-22T13:56:03;4.80;99.90
52889;DHT22;41413;52.770;6.892;2023-11-22T13:58:35;4.90;99.90
52889;DHT22;41413;52.770;6.892;2023-11-22T14:01:02;4.90;99.90
52889;DHT22;41413;52.770;6.892;2023-11-22T14:03:32;4.80;99.90
52889;DHT22;41413;52.770;6.892;2023-11-22T14:06:00;5.30;99.90
52889;DHT22;41413;52.770;6.892;2023-11-22T14:08:27;4.80;99.90
52889;DHT22;41413;52.770;6.892;2023-11-22T14:10:54;4.90;99.90
52889;DHT22;41413;52.770;6.892;2023-11-22T14:13:20;4.80;99.90
52889;DHT22;41413;52.770;6.892;2023-11-22T14:15:48;4.90;99.90
52889;DHT22;41413;52.770;6.892;2023-11-22T14:18:15;4.80;99.90
52889;DHT22;41413;52.770;6.892;2023-11-22T14:20:44;4.80;99.90
52889;DHT22;41413;52.770;6.892;2023-11-22T14:23:10;4.80;99.90
52889;DHT22;41413;52.770;6.892;2023-11-22T14:25:37;4.80;99.90
52889;DHT22;41413;52.770;6.892;2023-11-22T14:28:07;4.90;99.90
52889;DHT22;41413;52.770;6.892;2023-11-22T14:30:35;4.90;99.90
52889;DHT22;41413;52.770;6.892;2023-11-22T14:33:03;4.80;99.90
52889;DHT22;41413;52.770;6.892;2023-11-22T14:35:35;4.80;99.90
52889;DHT22;41413;52.770;6.892;2023-11-22T14:38:02;4.90;99.90
52889;DHT22;41413;52.770;6.892;2023-11-22T14:40:32;4.80;99.90
52889;DHT22;41413;52.770;6.892;2023-11-22T14:42:59;4.80;99.90
52889;DHT22;41413;52.770;6.892;2023-11-22T14:45:29;4.80;99.90
52889;DHT22;41413;52.770;6.892;2023-11-22T14:47:56;4.80;99.90
52889;DHT22;41413;52.770;6.892;2023-11-22T14:50:24;4.80;99.90
52889;DHT22;41413;52.770;6.892;2023-11-22T14:52:55;4.80;99.90
52889;DHT22;41413;52.770;6.892;2023-11-22T14:55:22;4.80;99.90
52889;DHT22;41413;52.770;6.892;2023-11-22T14:57:52;4.80;99.90
52889;DHT22;41413;52.770;6.892;2023-11-22T15:00:20;4.70;99.90
52889;DHT22;41413;52.770;6.892;2023-11-22T15:02:47;4.70;99.90
52889;DHT22;41413;52.770;6.892;2023-11-22T15:05:18;4.80;99.90
52889;DHT22;41413;52.770;6.892;2023-11-22T15:07:45;4.70;99.90
52889;DHT22;41413;52.770;6.892;2023-11-22T15:10:12;4.70;99.90
52889;DHT22;41413;52.770;6.892;2023-11-22T15:12:41;4.60;99.90
52889;DHT22;41413;52.770;6.892;2023-11-22T15:15:09;4.60;99.90
52889;DHT22;41413;52.770;6.892;2023-11-22T15:17:37;4.60;99.90
52889;DHT22;41413;52.770;6.892;2023-11-22T15:20:07;4.60;99.90
52889;DHT22;41413;52.770;6.892;2023-11-22T15:22:39;4.60;99.90
52889;DHT22;41413;52.770;6.892;2023-11-22T15:25:07;4.50;99.90
52889;DHT22;41413;52.770;6.892;2023-11-22T15:27:34;4.60;99.90
52889;DHT22;41413;52.770;6.892;2023-11-22T15:30:01;4.50;99.90
52889;DHT22;41413;52.770;6.892;2023-11-22T15:32:29;4.50;99.90
52889;DHT22;41413;52.770;6.892;2023-11-22T15:34:55;4.50;99.90
52889;DHT22;41413;52.770;6.892;2023-11-22T15:37:22;4.60;99.90
52889;DHT22;41413;52.770;6.892;2023-11-22T15:39:49;4.60;99.90
52889;DHT22;41413;52.770;6.892;2023-11-22T15:42:16;4.60;99.90
52889;DHT22;41413;52.770;6.892;2023-11-22T15:44:42;4.50;99.90
52889;DHT22;41413;52.770;6.892;2023-11-22T15:47:09;4.50;99.90
52889;DHT22;41413;52.770;6.892;2023-11-22T15:49:40;4.50;99.90
52889;DHT22;41413;52.770;6.892;2023-11-22T15:52:07;4.50;99.90
52889;DHT22;41413;52.770;6.892;2023-11-22T15:54:34;4.50;99.90